Time;durP1;ratioP1;P1;durP2;ratioP2;P2;SDS_P1;SDS_P2;PMS_P1;PMS_P2;Temp;Humidity;BMP_temperature;BMP_pressure;BME280_temperature;BME280_humidity;BME280_pressure;Samples;Min_cycle;Max_cycle;Signal;HPM_P1;HPM_P2
2023/11/09 00:00:48;;;;;;;25.70;17.00;;;;;;;4.73;82.65;98767.48;226818;1275;22538;-84
2023/11/09 00:05:51;;;;;;;26.10;16.30;;;;;;;4.65;82.66;98771.65;226602;1275;22555;-82
2023/11/09 00:11:06;;;;;;;27.60;16.10;;;;;;;4.56;83.10;98770.04;226844;1275;22533;-84
2023/11/09 00:16:13;;;;;;;24.80;16.00;;;;;;;4.48;83.18;98767.30;226579;1273;22542;-83
2023/11/09 00:21:17;;;;;;;21.60;14.80;;;;;;;4.40;83.57;98768.66;226771;1275;22568;-82
2023/11/09 00:26:24;;;;;;;23.90;14.90;;;;;;;4.34;83.46;98771.35;227096;1269;22541;-82
2023/11/09 00:31:48;;;;;;;22.80;14.30;;;;;;;4.30;83.88;98770.90;226914;1275;22517;-84
2023/11/09 00:36:51;;;;;;;18.30;12.80;;;;;;;4.26;83.77;98769.36;226140;1279;22560;-84
2023/11/09 00:42:00;;;;;;;20.80;14.00;;;;;;;4.23;84.03;98760.70;226302;1275;22547;-84
2023/11/09 00:47:08;;;;;;;25.40;14.80;;;;;;;4.21;84.09;98752.38;225963;1279;25411;-83
2023/11/09 00:52:14;;;;;;;25.70;15.80;;;;;;;4.15;83.67;98742.61;225953;1279;24945;-84
2023/11/09 00:57:21;;;;;;;24.90;14.80;;;;;;;4.10;83.98;98741.23;226092;1278;22675;-83
2023/11/09 01:02:28;;;;;;;22.30;14.10;;;;;;;4.05;84.03;98738.58;225988;1279;22580;-83
2023/11/09 01:07:34;;;;;;;18.40;11.60;;;;;;;4.01;84.25;98742.83;226588;1275;23869;-82
2023/11/09 01:12:37;;;;;;;17.80;12.80;;;;;;;4.00;84.36;98746.22;226859;1274;22693;-84
2023/11/09 01:18:18;;;;;;;16.10;11.10;;;;;;;4.00;84.71;98744.45;226671;1275;24282;-83
2023/11/09 01:23:34;;;;;;;17.80;12.80;;;;;;;4.00;84.85;98740.28;226730;1272;24235;-85
2023/11/09 01:28:37;;;;;;;21.00;13.60;;;;;;;4.00;84.67;98734.16;226612;1262;22544;-83
2023/11/09 01:33:40;;;;;;;18.00;12.10;;;;;;;3.97;84.88;98734.36;226779;1275;22531;-83
2023/11/09 01:38:48;;;;;;;20.70;14.10;;;;;;;3.94;84.90;98733.95;226765;1275;24410;-84
2023/11/09 01:44:03;;;;;;;21.80;14.40;;;;;;;3.89;84.80;98724.77;226732;1275;22540;-83
2023/11/09 01:49:13;;;;;;;20.90;14.90;;;;;;;3.85;85.17;98727.80;225932;1260;1077287;-84
2023/11/09 01:54:18;;;;;;;22.70;15.10;;;;;;;3.82;85.17;98720.11;226742;1256;22552;-84
2023/11/09 01:59:28;;;;;;;19.70;13.90;;;;;;;3.79;85.39;98716.71;226832;1275;22587;-84
2023/11/09 02:04:54;;;;;;;22.80;15.10;;;;;;;3.76;85.14;98716.98;226757;1275;22544;-83
2023/11/09 02:10:13;;;;;;;23.30;15.80;;;;;;;3.73;85.34;98718.11;227039;1275;22832;-84
2023/11/09 02:15:41;;;;;;;24.60;19.10;;;;;;;3.73;85.60;98717.95;226714;1265;22555;-84
2023/11/09 02:20:55;;;;;;;28.20;19.90;;;;;;;3.72;85.45;98719.41;226923;1263;22563;-83
2023/11/09 02:26:05;;;;;;;30.90;22.50;;;;;;;3.69;85.43;98720.64;226741;1272;23270;-83
2023/11/09 02:31:08;;;;;;;29.70;23.30;;;;;;;3.64;85.49;98721.84;226787;1275;22537;-84
2023/11/09 02:36:14;;;;;;;31.10;23.40;;;;;;;3.58;85.54;98724.11;226917;1275;24218;-83
2023/11/09 02:41:18;;;;;;;31.80;22.70;;;;;;;3.53;85.56;98719.23;226863;1275;23321;-83
2023/11/09 02:46:22;;;;;;;27.00;20.40;;;;;;;3.48;85.78;98713.05;226517;1275;22576;-83
2023/11/09 02:51:26;;;;;;;25.30;18.50;;;;;;;3.43;85.68;98715.60;226871;1272;22532;-83
2023/11/09 02:56:36;;;;;;;20.80;14.50;;;;;;;3.42;85.93;98715.91;226870;1275;22534;-83
2023/11/09 03:01:41;;;;;;;21.50;14.70;;;;;;;3.41;86.04;98713.40;226811;1272;22546;-83
2023/11/09 03:06:44;;;;;;;16.30;13.00;;;;;;;3.41;86.30;98708.90;226895;1275;22537;-83
2023/11/09 03:11:47;;;;;;;19.00;14.60;;;;;;;3.41;86.42;98707.86;226716;1275;22536;-83
2023/11/09 03:16:50;;;;;;;19.40;14.00;;;;;;;3.40;86.35;98707.09;226774;1275;22536;-84
2023/11/09 03:21:58;;;;;;;20.40;14.50;;;;;;;3.39;86.58;98706.27;226671;1275;22541;-83
2023/11/09 03:27:09;;;;;;;21.90;15.90;;;;;;;3.37;86.34;98707.31;226798;1275;22559;-83
2023/11/09 03:32:28;;;;;;;18.40;14.50;;;;;;;3.34;86.45;98705.36;226951;1275;22565;-83
2023/11/09 03:37:37;;;;;;;16.90;13.30;;;;;;;3.31;86.43;98705.07;226721;1275;22532;-83
2023/11/09 03:42:41;;;;;;;21.00;14.50;;;;;;;3.29;86.52;98702.85;226737;1275;22531;-83
2023/11/09 03:47:44;;;;;;;20.40;14.00;;;;;;;3.26;86.64;98701.71;226718;1275;22533;-82
2023/11/09 03:52:50;;;;;;;18.60;14.70;;;;;;;3.22;86.61;98700.42;226702;1275;22561;-83
2023/11/09 03:57:58;;;;;;;17.60;12.60;;;;;;;3.18;86.61;98696.58;226619;1275;25412;-83
2023/11/09 04:03:01;;;;;;;17.70;13.70;;;;;;;3.13;86.69;98698.73;226651;1275;22536;-83
2023/11/09 04:08:04;;;;;;;18.80;13.50;;;;;;;3.09;86.71;98695.12;226617;1275;22531;-83
2023/11/09 04:13:15;;;;;;;16.30;11.60;;;;;;;3.05;86.70;98692.39;226702;1275;22540;-83
2023/11/09 04:18:28;;;;;;;19.70;12.70;;;;;;;3.00;86.81;98689.42;226697;1262;22567;-83
2023/11/09 04:23:45;;;;;;;20.10;13.60;;;;;;;2.94;86.68;98675.52;226707;1275;22544;-84
2023/11/09 04:28:53;;;;;;;21.10;14.90;;;;;;;2.89;86.73;98669.73;226874;1275;22628;-83
2023/11/09 04:34:08;;;;;;;20.70;15.00;;;;;;;2.83;86.79;98662.58;226734;1275;22524;-83
2023/11/09 04:39:54;;;;;;;20.70;12.90;;;;;;;2.78;86.91;98658.21;226833;1275;23217;-84
2023/11/09 04:45:01;;;;;;;21.60;12.80;;;;;;;2.74;86.75;98653.94;226890;1275;22558;-84
2023/11/09 04:50:15;;;;;;;16.90;13.00;;;;;;;2.71;86.87;98653.00;226785;1275;22778;-83
2023/11/09 04:55:31;;;;;;;16.80;10.80;;;;;;;2.68;86.95;98645.27;226598;1275;22570;-83
2023/11/09 05:12:03;;;;;;;;;;;;;;;;;;;;;
2023/11/09 05:17:40;;;;;;;14.90;10.50;;;;;;;2.70;87.31;98620.34;226749;1275;22626;-84
2023/11/09 05:22:45;;;;;;;16.50;10.30;;;;;;;2.74;87.19;98625.05;226652;1272;22537;-83
2023/11/09 05:28:02;;;;;;;18.30;9.70;;;;;;;2.76;87.29;98622.09;226617;1275;22557;-85
2023/11/09 05:33:06;;;;;;;13.60;8.70;;;;;;;2.78;87.33;98612.60;226767;1273;22536;-82
2023/11/09 05:38:39;;;;;;;17.00;9.80;;;;;;;2.83;87.35;98607.66;226102;1278;22558;-84
2023/11/09 05:43:45;;;;;;;13.10;9.40;;;;;;;2.88;87.24;98607.02;226244;1278;22801;-84
2023/11/09 05:49:21;;;;;;;14.10;8.50;;;;;;;2.94;87.26;98608.42;226238;1262;22456;-84
2023/11/09 05:54:25;;;;;;;13.20;8.40;;;;;;;2.98;87.29;98609.21;226067;1278;22566;-82
2023/11/09 05:59:35;;;;;;;15.30;7.90;;;;;;;3.00;87.31;98612.53;226276;1278;22553;-83
2023/11/09 06:04:41;;;;;;;16.00;9.40;;;;;;;3.00;87.25;98613.50;226222;1273;23045;-84
2023/11/09 06:09:45;;;;;;;18.10;11.40;;;;;;;3.01;87.10;98610.80;226620;1275;22536;-84
2023/11/09 06:14:49;;;;;;;20.40;12.90;;;;;;;3.03;87.21;98604.77;226737;1275;22532;-84
2023/11/09 06:19:52;;;;;;;20.70;13.40;;;;;;;3.05;87.14;98599.30;226638;1275;25319;-83
2023/11/09 06:25:04;;;;;;;21.80;14.30;;;;;;;3.08;87.05;98597.61;226372;1275;22556;-84
2023/11/09 06:30:13;;;;;;;23.40;13.70;;;;;;;3.10;87.02;98594.13;226712;1253;23568;-84
2023/11/09 06:35:18;;;;;;;20.10;12.30;;;;;;;3.11;86.93;98590.01;226582;1275;24416;-83
2023/11/09 06:40:21;;;;;;;19.10;12.00;;;;;;;3.15;87.04;98593.66;226758;1275;24900;-83
2023/11/09 06:45:38;;;;;;;19.10;11.70;;;;;;;3.22;86.99;98595.98;226561;1275;22530;-82
2023/11/09 06:50:44;;;;;;;18.80;11.70;;;;;;;3.35;87.11;98598.54;226744;1275;25318;-84
2023/11/09 06:55:51;;;;;;;17.60;10.90;;;;;;;3.51;87.45;98596.25;226555;1272;22569;-80
2023/11/09 07:01:18;;;;;;;19.00;11.80;;;;;;;3.69;87.03;98587.38;226547;1268;22606;-84
2023/11/09 07:06:50;;;;;;;17.00;10.80;;;;;;;3.89;86.98;98585.61;226518;1270;25429;-84
2023/11/09 07:12:00;;;;;;;15.30;10.10;;;;;;;4.11;87.17;98577.67;226690;1275;22553;-85
2023/11/09 07:17:06;;;;;;;16.30;10.10;;;;;;;4.33;86.97;98571.33;226722;1265;22562;-86
2023/11/09 07:22:56;;;;;;;;;;;;;;;;;;;;;
2023/11/09 07:28:31;;;;;;;12.30;7.10;;;;;;;4.96;86.62;98558.34;226892;1269;22609;-85
2023/11/09 07:34:21;;;;;;;11.20;7.10;;;;;;;5.21;86.12;98551.86;227091;1275;22612;-82
2023/11/09 07:39:35;;;;;;;12.30;6.60;;;;;;;5.45;85.81;98546.50;226410;1269;22731;-84
2023/11/09 07:44:41;;;;;;;11.10;6.30;;;;;;;5.67;85.66;98540.77;226336;1272;22578;-84
2023/11/09 07:49:59;;;;;;;11.10;5.80;;;;;;;5.90;85.38;98539.84;226444;1263;25251;-83
2023/11/09 07:55:07;;;;;;;8.20;5.60;;;;;;;6.15;84.89;98533.90;226349;1269;25407;-82
2023/11/09 08:00:30;;;;;;;11.10;5.10;;;;;;;6.40;84.80;98528.89;226288;1271;22677;-83
2023/11/09 08:05:41;;;;;;;8.40;4.80;;;;;;;6.69;84.31;98518.89;225216;1280;22560;-82
2023/11/09 08:10:47;;;;;;;6.80;3.70;;;;;;;6.99;83.83;98527.95;224895;1276;22905;-81
2023/11/09 08:15:52;;;;;;;8.00;4.70;;;;;;;7.27;83.38;98532.11;225109;1276;22550;-83
2023/11/09 08:21:08;;;;;;;10.10;4.50;;;;;;;7.51;83.01;98527.71;225375;1279;22585;-83
2023/11/09 08:26:21;;;;;;;9.00;4.40;;;;;;;7.72;82.38;98528.16;225342;1281;25978;-83
2023/11/09 08:31:39;;;;;;;10.40;5.10;;;;;;;7.95;82.15;98521.84;225385;1276;22551;-84
2023/11/09 08:36:53;;;;;;;8.10;4.00;;;;;;;8.15;81.93;98513.98;226380;1265;22537;-83
2023/11/09 08:42:03;;;;;;;8.00;3.80;;;;;;;8.36;81.49;98511.96;226686;1272;24235;-84
2023/11/09 08:47:24;;;;;;;8.10;3.60;;;;;;;8.57;80.71;98506.98;226468;1273;23312;-83
2023/11/09 08:52:34;;;;;;;7.20;3.70;;;;;;;8.78;80.46;98500.96;226423;1273;25015;-83
2023/11/09 08:57:50;;;;;;;8.70;4.20;;;;;;;9.03;80.01;98501.27;226670;1269;22554;-83
2023/11/09 09:03:08;;;;;;;6.90;3.70;;;;;;;9.28;79.52;98497.21;226512;1274;22906;-83
2023/11/09 09:08:36;;;;;;;6.00;3.40;;;;;;;9.51;78.59;98501.34;226638;1273;24230;-84
2023/11/09 09:13:48;;;;;;;5.20;3.00;;;;;;;9.75;78.28;98500.63;226586;1275;23584;-84
2023/11/09 09:18:51;;;;;;;4.50;2.70;;;;;;;9.95;77.08;98497.71;226351;1268;22616;-85
2023/11/09 09:24:22;;;;;;;5.00;2.90;;;;;;;10.13;76.31;98489.78;226584;1272;24743;-84
2023/11/09 09:29:37;;;;;;;6.60;4.00;;;;;;;10.35;75.70;98487.94;226445;1273;25254;-84
2023/11/09 09:34:46;;;;;;;4.50;2.80;;;;;;;10.57;75.69;98476.93;226415;1270;22675;-84
2023/11/09 09:40:06;;;;;;;5.70;2.80;;;;;;;10.76;74.93;98473.89;226549;1267;22691;-83
2023/11/09 09:45:27;;;;;;;4.80;2.30;;;;;;;10.88;73.48;98472.48;226670;1271;22550;-83
2023/11/09 09:50:52;;;;;;;4.30;2.20;;;;;;;10.96;72.70;98475.65;226429;1269;22593;-82
2023/11/09 09:56:08;;;;;;;6.50;3.60;;;;;;;11.03;71.70;98475.75;226420;1267;24155;-82
2023/11/09 10:01:20;;;;;;;6.20;2.60;;;;;;;11.07;71.27;98480.98;226368;1272;23526;-82
2023/11/09 10:06:26;;;;;;;4.10;2.60;;;;;;;11.10;71.00;98474.88;226508;1270;22573;-82
2023/11/09 10:11:32;;;;;;;5.40;2.50;;;;;;;11.12;70.32;98472.50;226464;1269;22547;-83
2023/11/09 10:16:41;;;;;;;4.20;3.00;;;;;;;11.12;69.93;98469.04;226647;1272;22561;-82
2023/11/09 10:21:51;;;;;;;7.10;3.00;;;;;;;11.18;69.93;98459.77;226387;1267;22662;-82
2023/11/09 10:27:07;;;;;;;5.80;3.00;;;;;;;11.32;69.98;98456.30;226444;1267;22670;-82
2023/11/09 10:32:26;;;;;;;12.20;3.40;;;;;;;11.45;69.21;98451.60;226308;1275;23112;-84
2023/11/09 10:37:33;;;;;;;5.80;3.10;;;;;;;11.54;68.66;98444.18;226500;1272;22544;-81
2023/11/09 10:42:52;;;;;;;7.00;2.70;;;;;;;11.65;68.70;98433.70;226217;1260;23211;-84
2023/11/09 10:47:59;;;;;;;6.10;3.30;;;;;;;11.79;68.11;98422.08;226063;1271;22540;-82
2023/11/09 10:53:04;;;;;;;8.00;3.10;;;;;;;12.00;68.29;98423.05;226335;1260;22572;-83
2023/11/09 10:58:13;;;;;;;6.30;3.30;;;;;;;12.15;67.20;98419.17;226257;1267;22555;-83
2023/11/09 11:03:27;;;;;;;5.50;3.50;;;;;;;12.15;67.00;98416.64;226469;1267;22554;-83
2023/11/09 11:08:38;;;;;;;4.00;3.00;;;;;;;12.12;66.43;98412.89;226367;1251;22546;-83
2023/11/09 11:13:54;;;;;;;5.20;3.20;;;;;;;12.08;66.43;98406.09;226480;1256;22616;-82
2023/11/09 11:19:25;;;;;;;6.60;2.70;;;;;;;12.07;66.27;98404.45;226343;1270;22570;-83
2023/11/09 11:24:51;;;;;;;4.50;3.20;;;;;;;12.06;66.51;98393.70;226445;1267;22569;-84
2023/11/09 11:29:55;;;;;;;4.80;3.10;;;;;;;12.04;66.04;98385.89;226316;1271;22759;-82
2023/11/09 11:35:01;;;;;;;5.60;3.30;;;;;;;12.03;66.56;98383.81;226262;1267;22628;-82
2023/11/09 11:40:08;;;;;;;6.70;3.50;;;;;;;12.02;66.52;98378.70;226518;1267;22594;-82
2023/11/09 11:45:17;;;;;;;5.60;3.40;;;;;;;12.05;66.79;98379.00;226426;1273;22548;-82
2023/11/09 11:50:22;;;;;;;6.50;3.30;;;;;;;12.21;67.26;98367.80;226608;1273;24222;-83
2023/11/09 11:55:28;;;;;;;6.50;3.20;;;;;;;12.40;66.87;98363.63;226537;1272;25787;-80
2023/11/09 12:00:50;;;;;;;10.60;7.10;;;;;;;12.55;67.23;98346.93;226606;1268;22550;-81
2023/11/09 12:06:07;;;;;;;5.10;3.10;;;;;;;12.67;66.66;98345.08;226501;1270;22540;-81
2023/11/09 12:11:36;;;;;;;4.60;3.20;;;;;;;12.66;66.13;98342.50;226676;1261;22977;-81
2023/11/09 12:16:59;;;;;;;4.50;2.70;;;;;;;12.70;66.17;98330.51;226475;1260;22755;-82
2023/11/09 12:22:02;;;;;;;5.20;2.40;;;;;;;12.77;66.47;98327.20;225370;1274;24224;-82
2023/11/09 12:27:07;;;;;;;2.20;1.70;;;;;;;12.83;66.22;98331.53;225201;1260;22554;-80
2023/11/09 12:32:11;;;;;;;4.00;2.20;;;;;;;12.87;64.83;98331.84;225499;1277;22544;-83
2023/11/09 12:37:18;;;;;;;3.40;2.20;;;;;;;12.89;64.05;98325.02;225414;1280;22544;-81
2023/11/09 12:42:37;;;;;;;2.50;1.80;;;;;;;12.91;64.23;98318.30;225266;1267;22592;-81
2023/11/09 12:47:56;;;;;;;;;;;;;;;12.87;64.00;98310.30;225336;1277;22529;-81
2023/11/09 12:53:18;;;;;;;6.40;2.60;;;;;;;12.74;63.83;98305.84;226185;1272;22563;-82
2023/11/09 12:58:27;;;;;;;4.80;2.30;;;;;;;12.57;64.18;98299.26;226653;1267;22559;-82
2023/11/09 13:03:54;;;;;;;4.80;2.30;;;;;;;12.47;64.81;98296.30;226707;1256;22493;-82
2023/11/09 13:10:15;;;;;;;3.40;2.10;;;;;;;12.33;65.57;98288.77;226692;1267;22680;-83
2023/11/09 13:14:47;;;;;;;7.50;2.80;;;;;;;12.18;66.08;98284.00;226480;1267;25413;-82
2023/11/09 13:19:52;;;;;;;3.40;2.30;;;;;;;12.02;66.40;98282.73;226556;1267;22548;-79
2023/11/09 13:25:04;;;;;;;4.60;3.40;;;;;;;11.89;66.87;98278.40;226350;1267;22556;-77
2023/11/09 13:30:52;;;;;;;3.60;3.00;;;;;;;11.79;67.20;98271.51;225556;1274;26181;-79
2023/11/09 13:36:10;;;;;;;4.60;3.20;;;;;;;11.67;66.99;98263.73;225638;1267;22561;-81
2023/11/09 13:41:39;;;;;;;7.80;5.20;;;;;;;11.62;66.86;98265.17;227667;1264;22628;-80
2023/11/09 13:47:00;;;;;;;3.90;3.20;;;;;;;11.61;67.17;98270.33;225113;1267;393641;-79
2023/11/09 13:52:14;;;;;;;6.10;3.00;;;;;;;11.64;66.98;98264.52;225311;1251;22589;-79
2023/11/09 13:57:19;;;;;;;5.00;2.90;;;;;;;11.68;67.10;98267.41;225196;1272;25278;-80
2023/11/09 14:02:42;;;;;;;6.20;3.60;;;;;;;11.70;66.96;98266.84;227375;1260;22909;-80
2023/11/09 14:08:02;;;;;;;6.30;3.40;;;;;;;11.67;66.85;98265.86;227143;1272;22270;-78
2023/11/09 14:13:28;;;;;;;4.30;3.00;;;;;;;11.64;66.67;98266.48;227293;1276;22631;-79
2023/11/09 14:18:59;;;;;;;4.50;2.90;;;;;;;11.58;66.62;98270.27;226775;1268;22413;-78
2023/11/09 14:24:10;;;;;;;4.40;2.30;;;;;;;11.50;66.43;98273.51;226917;1277;22439;-80
2023/11/09 14:29:17;;;;;;;4.40;2.50;;;;;;;11.40;66.42;98268.91;227327;1276;24287;-81
2023/11/09 14:34:21;;;;;;;6.60;2.60;;;;;;;11.26;66.52;98274.55;225675;1257;23052;-78
2023/11/09 14:39:40;;;;;;;8.40;4.00;;;;;;;11.11;66.57;98271.63;225170;1259;24283;-82
2023/11/09 14:44:53;;;;;;;7.30;3.30;;;;;;;10.93;66.84;98267.80;227854;1272;22191;-79
2023/11/09 14:49:58;;;;;;;4.90;3.00;;;;;;;10.80;66.89;98264.42;227120;1267;22647;-80
2023/11/09 14:55:13;;;;;;;3.50;2.60;;;;;;;10.68;66.98;98266.84;226505;1267;22556;-82
2023/11/09 15:00:23;;;;;;;6.00;3.40;;;;;;;10.55;66.90;98269.21;226223;1266;24172;-80
2023/11/09 15:05:30;;;;;;;5.20;3.20;;;;;;;10.43;67.00;98270.45;226361;1275;22810;-80
2023/11/09 15:10:56;;;;;;;7.80;3.70;;;;;;;10.30;67.27;98273.45;226298;1276;22634;-79
2023/11/09 15:16:03;;;;;;;5.90;3.30;;;;;;;10.17;67.45;98269.98;226165;1257;22581;-80
2023/11/09 15:21:09;;;;;;;4.80;3.60;;;;;;;10.02;67.66;98268.86;226334;1272;22538;-81
2023/11/09 15:26:14;;;;;;;6.90;4.20;;;;;;;9.87;68.02;98278.05;227030;1273;22194;-80
2023/11/09 15:31:18;;;;;;;8.90;4.50;;;;;;;9.71;68.39;98280.80;227031;1275;22536;-79
2023/11/09 15:36:27;;;;;;;22.60;6.70;;;;;;;9.55;68.73;98279.41;226578;1275;22541;-80
2023/11/09 15:41:31;;;;;;;11.60;6.70;;;;;;;9.38;68.98;98278.21;226722;1272;22537;-81
2023/11/09 15:46:45;;;;;;;9.40;5.50;;;;;;;9.21;69.23;98277.44;226800;1275;22547;-80
2023/11/09 15:51:50;;;;;;;10.60;5.90;;;;;;;9.10;69.54;98274.48;226696;1275;22551;-80
2023/11/09 15:56:56;;;;;;;9.90;5.50;;;;;;;9.01;69.84;98267.77;226842;1275;22560;-80
2023/11/09 16:01:59;;;;;;;10.80;4.90;;;;;;;8.93;69.71;98272.71;226844;1275;22539;-79
2023/11/09 16:07:05;;;;;;;9.30;4.90;;;;;;;8.88;69.78;98271.46;226938;1272;22538;-80
2023/11/09 16:12:11;;;;;;;7.20;4.70;;;;;;;8.82;70.37;98272.49;226792;1275;24235;-80
2023/11/09 16:17:18;;;;;;;10.20;5.00;;;;;;;8.75;70.23;98272.83;226982;1269;24226;-79
2023/11/09 16:22:22;;;;;;;8.70;5.40;;;;;;;8.68;70.42;98269.05;226970;1272;22548;-81
2023/11/09 16:27:35;;;;;;;11.50;4.60;;;;;;;8.59;70.34;98273.09;226991;1272;22540;-81
2023/11/09 16:32:41;;;;;;;6.30;4.30;;;;;;;8.50;70.58;98275.06;226806;1275;22594;-80
2023/11/09 16:37:53;;;;;;;7.80;5.30;;;;;;;8.38;70.57;98279.39;226995;1270;24766;-81
2023/11/09 16:42:56;;;;;;;11.10;6.00;;;;;;;8.25;71.16;98275.01;226734;1275;22546;-80
2023/11/09 16:48:00;;;;;;;10.70;6.60;;;;;;;8.12;71.33;98272.24;226968;1275;22543;-80
2023/11/09 16:53:03;;;;;;;10.20;6.50;;;;;;;8.01;71.14;98265.75;227043;1271;22528;-80
2023/11/09 16:58:11;;;;;;;11.40;6.40;;;;;;;7.91;71.78;98262.42;227005;1270;22549;-81
2023/11/09 17:03:23;;;;;;;12.50;6.10;;;;;;;7.81;72.04;98261.83;227017;1275;22551;-80
2023/11/09 17:08:36;;;;;;;12.20;7.30;;;;;;;7.72;72.12;98262.15;226697;1272;22544;-81
2023/11/09 17:13:40;;;;;;;12.80;7.90;;;;;;;7.64;72.30;98259.16;226811;1275;22671;-81
2023/11/09 17:18:45;;;;;;;14.40;8.70;;;;;;;7.55;72.50;98250.92;226767;1275;22550;-81
2023/11/09 17:23:49;;;;;;;20.40;9.50;;;;;;;7.47;72.29;98249.86;226865;1275;23593;-81
2023/11/09 17:28:53;;;;;;;16.70;9.30;;;;;;;7.38;72.74;98246.09;227058;1272;22545;-80
2023/11/09 17:33:56;;;;;;;16.60;9.50;;;;;;;7.32;72.66;98243.27;226804;1275;22578;-81
2023/11/09 17:39:00;;;;;;;17.40;9.30;;;;;;;7.28;72.83;98242.41;226828;1275;22550;-80
2023/11/09 17:44:22;;;;;;;19.30;9.90;;;;;;;7.22;72.86;98235.74;226719;1275;22577;-81
2023/11/09 17:49:33;;;;;;;17.80;10.30;;;;;;;7.15;72.98;98236.80;226838;1275;22659;-80
2023/11/09 17:54:52;;;;;;;21.60;12.80;;;;;;;7.06;73.22;98232.75;226763;1274;22561;-81
2023/11/09 17:59:55;;;;;;;23.20;13.40;;;;;;;6.95;73.45;98228.79;226952;1275;22624;-81
2023/11/09 18:05:04;;;;;;;21.50;12.80;;;;;;;6.85;73.75;98234.13;226730;1275;24225;-81
2023/11/09 18:10:07;;;;;;;24.00;12.90;;;;;;;6.75;73.82;98230.61;226573;1274;22566;-81
2023/11/09 18:15:14;;;;;;;21.20;12.20;;;;;;;6.66;74.01;98232.45;226960;1275;22575;-81
2023/11/09 18:20:19;;;;;;;22.20;13.30;;;;;;;6.59;74.41;98228.56;226767;1275;22617;-80
2023/11/09 18:25:24;;;;;;;24.80;15.10;;;;;;;6.52;74.71;98228.00;226722;1275;22551;-79
2023/11/09 18:30:31;;;;;;;27.70;16.30;;;;;;;6.45;74.88;98229.92;226843;1275;22540;-80
2023/11/09 18:35:35;;;;;;;36.50;20.60;;;;;;;6.39;74.97;98227.29;227032;1275;22573;-80
2023/11/09 18:40:38;;;;;;;37.20;21.60;;;;;;;6.32;75.18;98220.02;226815;1271;22563;-80
2023/11/09 18:45:44;;;;;;;37.70;21.80;;;;;;;6.25;75.03;98216.38;227057;1275;22555;-80
2023/11/09 18:51:10;;;;;;;41.20;22.10;;;;;;;6.19;75.08;98210.38;226594;1272;24156;-80
2023/11/09 18:56:16;;;;;;;35.80;20.50;;;;;;;6.13;75.40;98203.52;226535;1271;23922;-80
2023/11/09 19:01:26;;;;;;;38.50;20.50;;;;;;;6.07;75.60;98197.52;226416;1276;22592;-81
2023/11/09 19:06:30;;;;;;;38.50;20.60;;;;;;;6.01;75.99;98195.52;226396;1276;22539;-79
2023/11/09 19:11:33;;;;;;;37.20;20.60;;;;;;;5.97;75.66;98193.19;226543;1275;22695;-81
2023/11/09 19:16:37;;;;;;;42.00;22.20;;;;;;;5.93;75.99;98188.59;226469;1278;22530;-80
2023/11/09 19:21:41;;;;;;;41.40;22.30;;;;;;;5.89;75.70;98188.52;226741;1275;22550;-80
2023/11/09 19:27:07;;;;;;;37.40;20.70;;;;;;;5.86;76.46;98194.47;226360;1277;22547;-81
2023/11/09 19:32:12;;;;;;;36.70;20.50;;;;;;;5.82;76.47;98194.58;226322;1278;22545;-78
2023/11/09 19:37:21;;;;;;;34.90;20.50;;;;;;;5.79;76.08;98192.77;226342;1257;22604;-79
2023/11/09 19:42:30;;;;;;;36.10;19.20;;;;;;;5.77;76.50;98189.36;226541;1275;22551;-80
2023/11/09 19:47:34;;;;;;;30.10;17.60;;;;;;;5.74;76.65;98186.95;226766;1275;22563;-80
2023/11/09 19:52:54;;;;;;;29.80;17.90;;;;;;;5.68;76.75;98177.23;226782;1275;25237;-81
2023/11/09 19:57:56;;;;;;;23.90;13.80;;;;;;;5.65;76.79;98169.14;226795;1275;22695;-80
2023/11/09 20:03:01;;;;;;;25.00;14.40;;;;;;;5.64;76.91;98163.33;226842;1272;22511;-81
2023/11/09 20:08:18;;;;;;;23.60;13.60;;;;;;;5.59;77.25;98157.95;227055;1275;24251;-80
2023/11/09 20:13:30;;;;;;;20.40;13.10;;;;;;;5.54;77.09;98149.98;226850;1272;22535;-81
2023/11/09 20:18:34;;;;;;;27.40;15.10;;;;;;;5.52;77.43;98148.36;226951;1272;22531;-81
2023/11/09 20:23:40;;;;;;;24.80;14.40;;;;;;;5.52;77.69;98141.64;226620;1275;22530;-81
2023/11/09 20:29:10;;;;;;;26.40;14.50;;;;;;;5.57;78.26;98137.46;226730;1274;22546;-80
2023/11/09 20:34:18;;;;;;;30.80;15.00;;;;;;;5.61;78.20;98139.58;226778;1275;24219;-80
2023/11/09 20:39:22;;;;;;;27.40;14.70;;;;;;;5.63;77.97;98141.35;226940;1265;26101;-80
2023/11/09 20:44:28;;;;;;;27.50;13.60;;;;;;;5.63;78.16;98139.45;226681;1275;22580;-79
2023/11/09 20:49:36;;;;;;;36.00;20.40;;;;;;;5.62;78.21;98134.96;226756;1273;22570;-80
2023/11/09 20:54:40;;;;;;;44.10;24.20;;;;;;;5.60;78.31;98128.55;226808;1275;22547;-80
2023/11/09 20:59:45;;;;;;;44.80;25.10;;;;;;;5.53;78.20;98127.55;226943;1275;22550;-80
2023/11/09 21:05:08;;;;;;;;;;;;;;;;;;;;;
2023/11/09 21:10:17;;;;;;;40.90;23.80;;;;;;;5.36;77.85;98120.84;226830;1275;22586;-79
2023/11/09 21:15:21;;;;;;;40.50;23.60;;;;;;;5.29;78.43;98118.30;226709;1275;22676;-82
2023/11/09 21:20:31;;;;;;;38.10;21.80;;;;;;;5.24;78.41;98114.21;227020;1272;22636;-79
2023/11/09 21:25:34;;;;;;;36.30;21.20;;;;;;;5.21;78.79;98108.30;227000;1272;22550;-79
2023/11/09 21:30:46;;;;;;;30.60;17.80;;;;;;;5.20;78.96;98098.45;226872;1274;22544;-81
2023/11/09 21:35:48;;;;;;;29.80;17.00;;;;;;;5.22;78.93;98088.33;226965;1275;22585;-81
2023/11/09 21:40:51;;;;;;;23.40;13.70;;;;;;;5.31;79.29;98077.33;226706;1253;22609;-81
2023/11/09 21:46:08;;;;;;;24.40;13.60;;;;;;;5.50;79.53;98081.86;226997;1275;23277;-82
2023/11/09 21:51:11;;;;;;;27.20;14.40;;;;;;;5.71;79.29;98079.09;227031;1275;22541;-81
2023/11/09 21:56:17;;;;;;;25.90;15.20;;;;;;;5.90;79.56;98071.36;226877;1275;22543;-81
2023/11/09 22:01:24;;;;;;;27.60;15.10;;;;;;;6.06;79.16;98067.93;226585;1275;22576;-81
2023/11/09 22:06:31;;;;;;;28.40;15.40;;;;;;;6.19;79.22;98065.77;226817;1275;22575;-81
2023/11/09 22:11:39;;;;;;;26.50;15.20;;;;;;;6.30;79.06;98065.41;226913;1269;22540;-81
2023/11/09 22:16:43;;;;;;;24.70;14.00;;;;;;;6.41;79.44;98068.76;226827;1275;22593;-81
2023/11/09 22:21:49;;;;;;;22.60;13.20;;;;;;;6.52;79.03;98064.05;226791;1273;22530;-81
2023/11/09 22:26:56;;;;;;;30.10;16.10;;;;;;;6.65;79.05;98067.98;226803;1275;22622;-81
2023/11/09 22:32:00;;;;;;;28.80;16.40;;;;;;;6.78;78.88;98065.30;226856;1272;22532;-81
2023/11/09 22:37:04;;;;;;;24.40;15.10;;;;;;;6.89;78.37;98074.05;226626;1275;22606;-81
2023/11/09 22:42:07;;;;;;;26.50;15.20;;;;;;;7.00;78.42;98074.48;226658;1275;22536;-81
2023/11/09 22:47:10;;;;;;;28.10;15.30;;;;;;;7.10;78.52;98077.68;226766;1275;22537;-81
2023/11/09 22:52:13;;;;;;;25.20;14.60;;;;;;;7.19;78.51;98078.48;226779;1275;22564;-81
2023/11/09 22:57:16;;;;;;;24.30;14.20;;;;;;;7.27;78.71;98076.79;226668;1275;22548;-80
2023/11/09 23:02:31;;;;;;;26.00;14.70;;;;;;;7.34;78.75;98068.80;226731;1273;22572;-81
2023/11/09 23:07:39;;;;;;;25.60;14.20;;;;;;;7.40;79.20;98065.02;226753;1275;22588;-80
2023/11/09 23:12:46;;;;;;;25.00;15.00;;;;;;;7.47;78.68;98060.72;226808;1259;22563;-81
2023/11/09 23:17:48;;;;;;;26.50;14.00;;;;;;;7.52;78.95;98050.15;226930;1271;26047;-81
2023/11/09 23:23:03;;;;;;;25.20;14.90;;;;;;;7.56;78.91;98051.85;226776;1272;22539;-80
2023/11/09 23:28:06;;;;;;;27.10;15.30;;;;;;;7.58;79.28;98043.77;226646;1275;22718;-81
2023/11/09 23:33:12;;;;;;;26.70;14.50;;;;;;;7.61;79.08;98040.32;226788;1275;22559;-80
2023/11/09 23:38:18;;;;;;;25.90;14.90;;;;;;;7.62;78.83;98037.11;226853;1272;22558;-80
2023/11/09 23:43:23;;;;;;;21.80;12.40;;;;;;;7.64;79.09;98035.67;226776;1275;23475;-81
2023/11/09 23:48:26;;;;;;;16.80;10.60;;;;;;;7.67;78.77;98031.98;226759;1272;22587;-81
2023/11/09 23:53:30;;;;;;;18.10;10.60;;;;;;;7.71;78.71;98029.80;226643;1274;22530;-80
2023/11/09 23:58:38;;;;;;;19.10;11.90;;;;;;;7.70;78.87;98027.20;226761;1275;22538;-80
